Portada
METAR-TAF:

METAR-TAF

Aeroports :

Funchal, Madeira, Portugal

latitud: 32-41-52N, longitud: 016-46-28W, altitud: 59 m

Observació

L'informe es va fer fa 24 minuts, a les 19:00 UTC
Vent 4 kt del Nord-Oest, variant entre Oest i Nord
Temperatura 14°C
Humitat 63%
Pressió 1017 hPa
Visibilitat 10 km o més
Escasses núvols a una alçada de 1500 ft

METAR: LPMA 221900Z 32004KT 270V010 9999 FEW015 14/07 Q1017

Hora: 19:24 (19:24 UTC)

Pronòstic

L'informe es va fer fa 2 hores i 24 minuts, a les 17:00 UTC
Pronòstic vàlid del 22 a les 18 UTC al 23 a les 18 UTC
Vent 8 kt del Nord/Nord-Oest
Visibilitat 10 km o més
Núvols disperses a una alçada de 1500 ft
Núvols disperses a una alçada de 3000 ft
Probabilitat 30% :
Temporalment
l' 22 a les 18 UTC al 23 a les 18 UTC
Visibilitat: 8000 m
Cel ennuvolat a una alçada de 1500 ft
Escasses núvols a una alçada de 1600 ft, Cumulus congestus.
xàfecs de pluja

TAF: LPMA 221700Z 2218/2318 34008KT 9999 SCT015 SCT030 PROB30 TEMPO 2218/2318 8000 SHRA BKN015 FEW016TCU

Observacions i pronòstics meteorològics de més de 4000 aeroports (METAR i TAF).

Les estacions disponibles són els punts grocs i vermells al mapa.

Posi el ratolí al punt desitjat per veure el nom de l'estació.

Feu clic per veure les observacions i els pronòstics meteorològics.

Per canviar el mapa: feu clic els botons verds amb una creu de color negre per apropar; al botó verd amb un guió per allunyar la imatge; o en les fletxes verdes per a mapes adjacents.


METAR-TAF: